Latham, Missouri
Current Conditions -  °F | °C
As of 6:35 AM on Friday 24 Oct 2014 (Local Time) from KVER Reporting Station
Haze Haze  
Wind Chill: 58°   Ceiling: 800
Heat Index: 58°   Visibility: 4mi
Dew Point: 58°   Wind: 3mph
Humidity: 100%   Direction: 230°SW
Pressure: 30.09"   Gusts: NA
Location:  38.56°N, 92.68°W
Report Text: KVER 241135Z AUTO 23003KT 4SM BR OVC008 14/14 A3009 RMK AO2 T01430144
Loading
Personal Weather Stations






























Interactive Weather Map
Tropical Storm Tracking
New forecast layout! Learn more

10-Day Weather Forecast

Advertisements
Track Severe Weather on mobile